Airport ICAO


20:21 UTC

23°C

Clear skies


An affordable passengers' Moving Map for your aircraft. Made for the iPad and the iPhone
More information here

LFPN Le Noble


Toussous FRANCE   VFR CAVOK


METAR LFPN 162000Z AUTO 35004KT CAVOK 23/11 Q1014 NOSIG 0h21min

TAF LFPN 161700Z 1618/1703 34008KT CAVOK TEMPO 1618/1620 9999 -SHRA SCT060TCU 3h21min





NOTAMS

OPEN